sensor_id;sensor_type;location;lat;lon;timestamp;P1;durP1;ratioP1;P2;durP2;ratioP2
85301;SDS011;75707;46.948;7.410;2024-02-23T00:01:11;0.899999976;;;0.300000012;;
85301;SDS011;75707;46.948;7.410;2024-02-23T00:02:12;0.5;;;0.200000003;;
85301;SDS011;75707;46.948;7.410;2024-02-23T00:03:13;1.200000048;;;0.200000003;;
85301;SDS011;75707;46.948;7.410;2024-02-23T00:04:14;0.200000003;;;0.200000003;;
85301;SDS011;75707;46.948;7.410;2024-02-23T00:05:15;0.600000024;;;0.5;;
85301;SDS011;75707;46.948;7.410;2024-02-23T00:06:17;0.800000012;;;0.200000003;;
85301;SDS011;75707;46.948;7.410;2024-02-23T00:07:18;0.5;;;0.100000001;;
85301;SDS011;75707;46.948;7.410;2024-02-23T00:08:19;0.400000006;;;0.200000003;;
85301;SDS011;75707;46.948;7.410;2024-02-23T00:09:21;0.100000001;;;0.100000001;;
85301;SDS011;75707;46.948;7.410;2024-02-23T00:10:22;0.400000006;;;0.200000003;;
85301;SDS011;75707;46.948;7.410;2024-02-23T00:12:00;0.100000001;;;0.100000001;;
85301;SDS011;75707;46.948;7.410;2024-02-23T00:14:03;0.200000003;;;0.200000003;;
85301;SDS011;75707;46.948;7.410;2024-02-23T00:15:58;0.400000006;;;0.200000003;;
85301;SDS011;75707;46.948;7.410;2024-02-23T00:16:59;0.300000012;;;0.200000003;;
85301;SDS011;75707;46.948;7.410;2024-02-23T00:18:01;0.400000006;;;0.200000003;;
85301;SDS011;75707;46.948;7.410;2024-02-23T00:19:02;0.200000003;;;0.200000003;;
85301;SDS011;75707;46.948;7.410;2024-02-23T00:20:04;0.699999988;;;0.200000003;;
85301;SDS011;75707;46.948;7.410;2024-02-23T00:21:04;1.5;;;0.300000012;;
85301;SDS011;75707;46.948;7.410;2024-02-23T00:22:06;0.699999988;;;0.300000012;;
85301;SDS011;75707;46.948;7.410;2024-02-23T00:23:07;0.100000001;;;0.100000001;;
85301;SDS011;75707;46.948;7.410;2024-02-23T00:24:08;0.200000003;;;0.200000003;;
85301;SDS011;75707;46.948;7.410;2024-02-23T00:25:09;0.100000001;;;0.100000001;;
85301;SDS011;75707;46.948;7.410;2024-02-23T00:26:10;1.700000048;;;0.200000003;;
85301;SDS011;75707;46.948;7.410;2024-02-23T00:27:12;1;;;0.200000003;;
85301;SDS011;75707;46.948;7.410;2024-02-23T00:28:12;0.300000012;;;0.100000001;;
85301;SDS011;75707;46.948;7.410;2024-02-23T00:29:13;0.200000003;;;0.100000001;;
85301;SDS011;75707;46.948;7.410;2024-02-23T00:30:14;0.200000003;;;0.200000003;;
85301;SDS011;75707;46.948;7.410;2024-02-23T00:32:16;0.400000006;;;0.300000012;;
85301;SDS011;75707;46.948;7.410;2024-02-23T00:33:17;0.400000006;;;0.100000001;;
85301;SDS011;75707;46.948;7.410;2024-02-23T00:34:19;0.200000003;;;0.200000003;;
85301;SDS011;75707;46.948;7.410;2024-02-23T00:35:20;0.5;;;0.300000012;;
85301;SDS011;75707;46.948;7.410;2024-02-23T00:36:21;0.300000012;;;0.200000003;;
85301;SDS011;75707;46.948;7.410;2024-02-23T00:37:22;1.899999976;;;0.100000001;;
85301;SDS011;75707;46.948;7.410;2024-02-23T00:39:00;0.200000003;;;0.200000003;;
85301;SDS011;75707;46.948;7.410;2024-02-23T00:40:01;0.100000001;;;0.100000001;;
85301;SDS011;75707;46.948;7.410;2024-02-23T00:41:02;0.300000012;;;0.300000012;;
85301;SDS011;75707;46.948;7.410;2024-02-23T00:42:03;0.600000024;;;0.200000003;;
85301;SDS011;75707;46.948;7.410;2024-02-23T00:43:59;0.100000001;;;0.100000001;;
85301;SDS011;75707;46.948;7.410;2024-02-23T00:45:00;0.699999988;;;0.100000001;;
85301;SDS011;75707;46.948;7.410;2024-02-23T00:46:01;0.200000003;;;0.200000003;;
85301;SDS011;75707;46.948;7.410;2024-02-23T00:47:02;0.400000006;;;0.400000006;;
85301;SDS011;75707;46.948;7.410;2024-02-23T00:48:03;0.300000012;;;0.100000001;;
85301;SDS011;75707;46.948;7.410;2024-02-23T00:49:04;0.200000003;;;0.100000001;;
85301;SDS011;75707;46.948;7.410;2024-02-23T00:50:05;0.300000012;;;0.200000003;;
85301;SDS011;75707;46.948;7.410;2024-02-23T00:51:06;0.200000003;;;0.200000003;;
85301;SDS011;75707;46.948;7.410;2024-02-23T00:53:08;0.600000024;;;0.100000001;;
85301;SDS011;75707;46.948;7.410;2024-02-23T00:54:09;0.699999988;;;0.100000001;;
85301;SDS011;75707;46.948;7.410;2024-02-23T00:55:11;0.200000003;;;0.200000003;;
85301;SDS011;75707;46.948;7.410;2024-02-23T00:58:15;1.399999976;;;0.300000012;;
85301;SDS011;75707;46.948;7.410;2024-02-23T00:59:16;1.299999952;;;0.200000003;;
85301;SDS011;75707;46.948;7.410;2024-02-23T01:00:17;0.200000003;;;0.200000003;;
85301;SDS011;75707;46.948;7.410;2024-02-23T01:01:19;0.400000006;;;0.300000012;;
85301;SDS011;75707;46.948;7.410;2024-02-23T01:02:20;0.300000012;;;0.300000012;;
85301;SDS011;75707;46.948;7.410;2024-02-23T01:03:21;0.899999976;;;0.200000003;;
85301;SDS011;75707;46.948;7.410;2024-02-23T01:06:01;0.5;;;0.200000003;;
85301;SDS011;75707;46.948;7.410;2024-02-23T01:07:02;0.699999988;;;0.200000003;;
85301;SDS011;75707;46.948;7.410;2024-02-23T01:08:03;0.600000024;;;0.300000012;;
85301;SDS011;75707;46.948;7.410;2024-02-23T01:09:59;0.300000012;;;0.200000003;;
85301;SDS011;75707;46.948;7.410;2024-02-23T01:11:00;0.5;;;0.300000012;;
85301;SDS011;75707;46.948;7.410;2024-02-23T01:12:01;0.300000012;;;0.100000001;;
85301;SDS011;75707;46.948;7.410;2024-02-23T01:13:02;0.5;;;0.200000003;;
85301;SDS011;75707;46.948;7.410;2024-02-23T01:14:03;0.800000012;;;0.200000003;;
85301;SDS011;75707;46.948;7.410;2024-02-23T01:15:04;1.100000024;;;0.600000024;;
85301;SDS011;75707;46.948;7.410;2024-02-23T01:16:05;0.899999976;;;0.200000003;;
85301;SDS011;75707;46.948;7.410;2024-02-23T01:17:06;1.100000024;;;0.300000012;;
85301;SDS011;75707;46.948;7.410;2024-02-23T01:18:07;1.200000048;;;0.200000003;;
85301;SDS011;75707;46.948;7.410;2024-02-23T01:19:08;0.400000006;;;0.300000012;;
85301;SDS011;75707;46.948;7.410;2024-02-23T01:20:10;0.800000012;;;0.400000006;;
85301;SDS011;75707;46.948;7.410;2024-02-23T01:21:10;0.600000024;;;0.300000012;;
85301;SDS011;75707;46.948;7.410;2024-02-23T01:22:12;0.600000024;;;0.200000003;;
85301;SDS011;75707;46.948;7.410;2024-02-23T01:23:13;1;;;0.200000003;;
85301;SDS011;75707;46.948;7.410;2024-02-23T01:24:14;0.5;;;0.200000003;;
85301;SDS011;75707;46.948;7.410;2024-02-23T01:25:15;0.300000012;;;0.200000003;;
85301;SDS011;75707;46.948;7.410;2024-02-23T01:26:16;1;;;0.300000012;;
85301;SDS011;75707;46.948;7.410;2024-02-23T01:27:17;1.399999976;;;0.300000012;;
85301;SDS011;75707;46.948;7.410;2024-02-23T01:28:18;1.100000024;;;0.200000003;;
85301;SDS011;75707;46.948;7.410;2024-02-23T01:29:19;0.300000012;;;0.200000003;;
85301;SDS011;75707;46.948;7.410;2024-02-23T01:30:20;0.300000012;;;0.300000012;;
85301;SDS011;75707;46.948;7.410;2024-02-23T01:31:59;0.800000012;;;0.200000003;;
85301;SDS011;75707;46.948;7.410;2024-02-23T01:33:00;2.099999905;;;0.300000012;;
85301;SDS011;75707;46.948;7.410;2024-02-23T01:34:01;0.200000003;;;0.200000003;;
85301;SDS011;75707;46.948;7.410;2024-02-23T01:35:02;0.100000001;;;0.100000001;;
85301;SDS011;75707;46.948;7.410;2024-02-23T01:36:04;0.600000024;;;0.200000003;;
85301;SDS011;75707;46.948;7.410;2024-02-23T01:37:59;0.699999988;;;0.200000003;;
85301;SDS011;75707;46.948;7.410;2024-02-23T01:39:01;1.100000024;;;0.200000003;;
85301;SDS011;75707;46.948;7.410;2024-02-23T01:40:02;0.200000003;;;0.200000003;;
85301;SDS011;75707;46.948;7.410;2024-02-23T01:41:03;0.5;;;0.5;;
85301;SDS011;75707;46.948;7.410;2024-02-23T01:42:04;0.5;;;0.200000003;;
85301;SDS011;75707;46.948;7.410;2024-02-23T01:43:06;1.100000024;;;0.200000003;;
85301;SDS011;75707;46.948;7.410;2024-02-23T01:44:07;0.100000001;;;0.100000001;;
85301;SDS011;75707;46.948;7.410;2024-02-23T01:45:08;0.5;;;0.300000012;;
85301;SDS011;75707;46.948;7.410;2024-02-23T01:46:09;0.800000012;;;0.300000012;;
85301;SDS011;75707;46.948;7.410;2024-02-23T01:47:10;0.600000024;;;0.200000003;;
85301;SDS011;75707;46.948;7.410;2024-02-23T01:48:12;0.699999988;;;0.200000003;;
85301;SDS011;75707;46.948;7.410;2024-02-23T01:49:13;1.299999952;;;0.200000003;;
85301;SDS011;75707;46.948;7.410;2024-02-23T01:50:15;0.800000012;;;0.5;;
85301;SDS011;75707;46.948;7.410;2024-02-23T01:51:16;1;;;0.300000012;;
85301;SDS011;75707;46.948;7.410;2024-02-23T01:52:17;0.300000012;;;0.300000012;;
85301;SDS011;75707;46.948;7.410;2024-02-23T01:53:18;0.400000006;;;0.200000003;;
85301;SDS011;75707;46.948;7.410;2024-02-23T01:54:20;1.200000048;;;0.300000012;;
85301;SDS011;75707;46.948;7.410;2024-02-23T01:55:21;0.899999976;;;0.200000003;;
85301;SDS011;75707;46.948;7.410;2024-02-23T01:56:23;0.300000012;;;0.200000003;;
85301;SDS011;75707;46.948;7.410;2024-02-23T01:58:02;0.200000003;;;0.200000003;;
85301;SDS011;75707;46.948;7.410;2024-02-23T01:59:03;0.300000012;;;0.200000003;;
85301;SDS011;75707;46.948;7.410;2024-02-23T02:00:04;0.800000012;;;0.400000006;;
85301;SDS011;75707;46.948;7.410;2024-02-23T02:01:05;0.200000003;;;0.200000003;;
85301;SDS011;75707;46.948;7.410;2024-02-23T02:03:02;0.100000001;;;0.100000001;;
85301;SDS011;75707;46.948;7.410;2024-02-23T02:04:03;0.400000006;;;0.300000012;;
85301;SDS011;75707;46.948;7.410;2024-02-23T02:05:04;0.200000003;;;0.200000003;;
85301;SDS011;75707;46.948;7.410;2024-02-23T02:06:06;0.400000006;;;0.300000012;;
85301;SDS011;75707;46.948;7.410;2024-02-23T02:07:07;0.699999988;;;0.100000001;;
85301;SDS011;75707;46.948;7.410;2024-02-23T02:08:08;0.200000003;;;0.200000003;;
85301;SDS011;75707;46.948;7.410;2024-02-23T02:09:09;0.699999988;;;0.300000012;;
85301;SDS011;75707;46.948;7.410;2024-02-23T02:10:10;0.5;;;0.300000012;;
85301;SDS011;75707;46.948;7.410;2024-02-23T02:11:11;0.600000024;;;0.200000003;;
85301;SDS011;75707;46.948;7.410;2024-02-23T02:12:12;0.100000001;;;0.100000001;;
85301;SDS011;75707;46.948;7.410;2024-02-23T02:13:13;0.200000003;;;0.200000003;;
85301;SDS011;75707;46.948;7.410;2024-02-23T02:14:15;0.699999988;;;0.200000003;;
85301;SDS011;75707;46.948;7.410;2024-02-23T02:15:15;0.800000012;;;0.100000001;;
85301;SDS011;75707;46.948;7.410;2024-02-23T02:16:17;0.400000006;;;0.200000003;;
85301;SDS011;75707;46.948;7.410;2024-02-23T02:17:18;0.300000012;;;0.200000003;;
85301;SDS011;75707;46.948;7.410;2024-02-23T02:18:19;0.800000012;;;0.200000003;;
85301;SDS011;75707;46.948;7.410;2024-02-23T02:19:20;0.400000006;;;0.200000003;;
85301;SDS011;75707;46.948;7.410;2024-02-23T02:20:23;0.200000003;;;0.200000003;;
85301;SDS011;75707;46.948;7.410;2024-02-23T02:21:22;0.100000001;;;0.100000001;;
85301;SDS011;75707;46.948;7.410;2024-02-23T02:22:23;0.5;;;0.200000003;;
85301;SDS011;75707;46.948;7.410;2024-02-23T02:23:24;1.100000024;;;0.100000001;;
85301;SDS011;75707;46.948;7.410;2024-02-23T02:25:01;0.800000012;;;0.300000012;;
85301;SDS011;75707;46.948;7.410;2024-02-23T02:26:02;0.600000024;;;0.200000003;;
85301;SDS011;75707;46.948;7.410;2024-02-23T02:27:07;0.200000003;;;0.200000003;;
85301;SDS011;75707;46.948;7.410;2024-02-23T02:28:09;0.300000012;;;0.100000001;;
85301;SDS011;75707;46.948;7.410;2024-02-23T02:29:13;0.100000001;;;0.100000001;;
85301;SDS011;75707;46.948;7.410;2024-02-23T02:30:16;0.5;;;0.200000003;;
85301;SDS011;75707;46.948;7.410;2024-02-23T02:31:19;0.400000006;;;0.200000003;;
85301;SDS011;75707;46.948;7.410;2024-02-23T02:32:23;0.699999988;;;0.300000012;;
85301;SDS011;75707;46.948;7.410;2024-02-23T02:33:26;1.600000024;;;0.400000006;;
85301;SDS011;75707;46.948;7.410;2024-02-23T02:34:30;0.600000024;;;0.200000003;;
85301;SDS011;75707;46.948;7.410;2024-02-23T02:36:05;0.200000003;;;0.200000003;;
85301;SDS011;75707;46.948;7.410;2024-02-23T02:37:08;1.600000024;;;0.200000003;;
85301;SDS011;75707;46.948;7.410;2024-02-23T02:38:11;0.200000003;;;0.200000003;;
85301;SDS011;75707;46.948;7.410;2024-02-23T02:39:15;0.699999988;;;0.400000006;;
85301;SDS011;75707;46.948;7.410;2024-02-23T02:40:18;2;;;0.600000024;;
85301;SDS011;75707;46.948;7.410;2024-02-23T02:41:22;1.5;;;0.400000006;;
85301;SDS011;75707;46.948;7.410;2024-02-23T02:42:25;0.899999976;;;0.200000003;;
85301;SDS011;75707;46.948;7.410;2024-02-23T02:43:28;0.300000012;;;0.300000012;;
85301;SDS011;75707;46.948;7.410;2024-02-23T02:45:04;0.400000006;;;0.200000003;;
85301;SDS011;75707;46.948;7.410;2024-02-23T02:46:08;0.300000012;;;0.200000003;;
85301;SDS011;75707;46.948;7.410;2024-02-23T02:47:11;0.800000012;;;0.300000012;;
85301;SDS011;75707;46.948;7.410;2024-02-23T02:48:14;0.300000012;;;0.300000012;;
85301;SDS011;75707;46.948;7.410;2024-02-23T02:49:17;0.400000006;;;0.400000006;;
85301;SDS011;75707;46.948;7.410;2024-02-23T02:50:20;0.200000003;;;0.200000003;;
85301;SDS011;75707;46.948;7.410;2024-02-23T02:51:23;0.300000012;;;0.300000012;;
85301;SDS011;75707;46.948;7.410;2024-02-23T02:52:26;0.200000003;;;0.200000003;;
85301;SDS011;75707;46.948;7.410;2024-02-23T02:53:28;0.800000012;;;0.300000012;;
85301;SDS011;75707;46.948;7.410;2024-02-23T02:55:02;1.200000048;;;0.400000006;;
85301;SDS011;75707;46.948;7.410;2024-02-23T02:56:05;0.300000012;;;0.300000012;;
85301;SDS011;75707;46.948;7.410;2024-02-23T02:57:06;1;;;0.400000006;;
85301;SDS011;75707;46.948;7.410;2024-02-23T02:58:08;0.899999976;;;0.300000012;;
85301;SDS011;75707;46.948;7.410;2024-02-23T02:59:10;0.300000012;;;0.200000003;;
85301;SDS011;75707;46.948;7.410;2024-02-23T03:00:12;0.300000012;;;0.300000012;;
85301;SDS011;75707;46.948;7.410;2024-02-23T03:01:13;1.100000024;;;0.300000012;;
85301;SDS011;75707;46.948;7.410;2024-02-23T03:02:15;0.5;;;0.200000003;;
85301;SDS011;75707;46.948;7.410;2024-02-23T03:03:17;0.300000012;;;0.200000003;;
85301;SDS011;75707;46.948;7.410;2024-02-23T03:04:19;0.699999988;;;0.400000006;;
85301;SDS011;75707;46.948;7.410;2024-02-23T03:05:21;0.800000012;;;0.400000006;;
85301;SDS011;75707;46.948;7.410;2024-02-23T03:06:23;0.5;;;0.200000003;;
85301;SDS011;75707;46.948;7.410;2024-02-23T03:07:25;0.400000006;;;0.200000003;;
85301;SDS011;75707;46.948;7.410;2024-02-23T03:08:27;1.299999952;;;0.300000012;;
85301;SDS011;75707;46.948;7.410;2024-02-23T03:09:29;0.600000024;;;0.200000003;;
85301;SDS011;75707;46.948;7.410;2024-02-23T03:11:03;2.099999905;;;0.300000012;;
85301;SDS011;75707;46.948;7.410;2024-02-23T03:12:05;1.600000024;;;0.5;;
85301;SDS011;75707;46.948;7.410;2024-02-23T03:13:07;0.5;;;0.400000006;;
85301;SDS011;75707;46.948;7.410;2024-02-23T03:14:10;0.400000006;;;0.400000006;;
85301;SDS011;75707;46.948;7.410;2024-02-23T03:15:12;0.5;;;0.200000003;;
85301;SDS011;75707;46.948;7.410;2024-02-23T03:16:14;2.400000095;;;0.300000012;;
85301;SDS011;75707;46.948;7.410;2024-02-23T03:17:17;1.299999952;;;0.300000012;;
85301;SDS011;75707;46.948;7.410;2024-02-23T03:18:19;0.300000012;;;0.300000012;;
85301;SDS011;75707;46.948;7.410;2024-02-23T03:19:21;0.200000003;;;0.200000003;;
85301;SDS011;75707;46.948;7.410;2024-02-23T03:20:24;0.400000006;;;0.200000003;;
85301;SDS011;75707;46.948;7.410;2024-02-23T03:21:26;0.600000024;;;0.100000001;;
85301;SDS011;75707;46.948;7.410;2024-02-23T03:22:29;0.5;;;0.200000003;;
85301;SDS011;75707;46.948;7.410;2024-02-23T03:24:03;0.200000003;;;0.200000003;;
85301;SDS011;75707;46.948;7.410;2024-02-23T03:25:06;0.400000006;;;0.200000003;;
85301;SDS011;75707;46.948;7.410;2024-02-23T03:26:08;1.200000048;;;0.5;;
85301;SDS011;75707;46.948;7.410;2024-02-23T03:27:10;0.699999988;;;0.400000006;;
85301;SDS011;75707;46.948;7.410;2024-02-23T03:28:12;0.400000006;;;0.400000006;;
85301;SDS011;75707;46.948;7.410;2024-02-23T03:29:15;0.600000024;;;0.300000012;;
85301;SDS011;75707;46.948;7.410;2024-02-23T03:30:17;1.200000048;;;0.400000006;;
85301;SDS011;75707;46.948;7.410;2024-02-23T03:31:19;0.200000003;;;0.200000003;;
85301;SDS011;75707;46.948;7.410;2024-02-23T03:32:22;1.600000024;;;0.300000012;;
85301;SDS011;75707;46.948;7.410;2024-02-23T03:33:24;1.299999952;;;0.200000003;;
85301;SDS011;75707;46.948;7.410;2024-02-23T03:34:26;0.300000012;;;0.200000003;;
85301;SDS011;75707;46.948;7.410;2024-02-23T03:35:29;1.600000024;;;0.300000012;;
85301;SDS011;75707;46.948;7.410;2024-02-23T03:37:04;1.200000048;;;0.400000006;;
85301;SDS011;75707;46.948;7.410;2024-02-23T03:38:07;0.699999988;;;0.5;;
85301;SDS011;75707;46.948;7.410;2024-02-23T03:39:10;0.400000006;;;0.300000012;;
85301;SDS011;75707;46.948;7.410;2024-02-23T03:40:13;1;;;0.400000006;;
85301;SDS011;75707;46.948;7.410;2024-02-23T03:41:16;1.200000048;;;0.200000003;;
85301;SDS011;75707;46.948;7.410;2024-02-23T03:42:19;0.200000003;;;0.200000003;;
85301;SDS011;75707;46.948;7.410;2024-02-23T03:43:22;1.100000024;;;0.300000012;;
85301;SDS011;75707;46.948;7.410;2024-02-23T03:44:25;0.400000006;;;0.300000012;;
85301;SDS011;75707;46.948;7.410;2024-02-23T03:45:28;0.899999976;;;0.200000003;;
85301;SDS011;75707;46.948;7.410;2024-02-23T03:47:02;0.400000006;;;0.200000003;;
85301;SDS011;75707;46.948;7.410;2024-02-23T03:48:04;1.299999952;;;0.300000012;;
85301;SDS011;75707;46.948;7.410;2024-02-23T03:49:06;0.400000006;;;0.200000003;;
85301;SDS011;75707;46.948;7.410;2024-02-23T03:50:08;1.100000024;;;0.200000003;;
85301;SDS011;75707;46.948;7.410;2024-02-23T03:51:10;0.699999988;;;0.300000012;;
85301;SDS011;75707;46.948;7.410;2024-02-23T03:52:13;0.5;;;0.200000003;;
85301;SDS011;75707;46.948;7.410;2024-02-23T03:53:15;0.400000006;;;0.200000003;;
85301;SDS011;75707;46.948;7.410;2024-02-23T03:54:18;1.200000048;;;0.300000012;;
85301;SDS011;75707;46.948;7.410;2024-02-23T03:55:20;0.600000024;;;0.200000003;;
85301;SDS011;75707;46.948;7.410;2024-02-23T03:56:22;0.699999988;;;0.200000003;;
85301;SDS011;75707;46.948;7.410;2024-02-23T03:57:25;1;;;0.300000012;;
85301;SDS011;75707;46.948;7.410;2024-02-23T03:58:27;0.800000012;;;0.400000006;;
85301;SDS011;75707;46.948;7.410;2024-02-23T04:00:01;0.200000003;;;0.100000001;;
85301;SDS011;75707;46.948;7.410;2024-02-23T04:01:03;0.699999988;;;0.400000006;;
85301;SDS011;75707;46.948;7.410;2024-02-23T04:02:06;1.100000024;;;0.300000012;;
85301;SDS011;75707;46.948;7.410;2024-02-23T04:03:08;0.5;;;0.300000012;;
85301;SDS011;75707;46.948;7.410;2024-02-23T04:04:10;1;;;0.400000006;;
85301;SDS011;75707;46.948;7.410;2024-02-23T04:05:13;0.400000006;;;0.200000003;;
85301;SDS011;75707;46.948;7.410;2024-02-23T04:06:15;0.600000024;;;0.100000001;;
85301;SDS011;75707;46.948;7.410;2024-02-23T04:07:17;1.100000024;;;0.200000003;;
85301;SDS011;75707;46.948;7.410;2024-02-23T04:08:19;1.100000024;;;0.400000006;;
85301;SDS011;75707;46.948;7.410;2024-02-23T04:09:21;0.400000006;;;0.400000006;;
85301;SDS011;75707;46.948;7.410;2024-02-23T04:10:23;0.400000006;;;0.300000012;;
85301;SDS011;75707;46.948;7.410;2024-02-23T04:11:25;0.200000003;;;0.200000003;;
85301;SDS011;75707;46.948;7.410;2024-02-23T04:12:27;1.600000024;;;0.300000012;;
85301;SDS011;75707;46.948;7.410;2024-02-23T04:14:00;1.700000048;;;0.300000012;;
85301;SDS011;75707;46.948;7.410;2024-02-23T04:15:02;0.699999988;;;0.300000012;;
85301;SDS011;75707;46.948;7.410;2024-02-23T04:16:04;0.800000012;;;0.200000003;;
85301;SDS011;75707;46.948;7.410;2024-02-23T04:17:06;1.799999952;;;0.800000012;;
85301;SDS011;75707;46.948;7.410;2024-02-23T04:18:08;1.100000024;;;0.200000003;;
85301;SDS011;75707;46.948;7.410;2024-02-23T04:19:10;0.400000006;;;0.200000003;;
85301;SDS011;75707;46.948;7.410;2024-02-23T04:21:14;0.800000012;;;0.200000003;;
85301;SDS011;75707;46.948;7.410;2024-02-23T04:22:16;0.899999976;;;0.400000006;;
85301;SDS011;75707;46.948;7.410;2024-02-23T04:23:18;1;;;0.300000012;;
85301;SDS011;75707;46.948;7.410;2024-02-23T04:24:20;1;;;0.400000006;;
85301;SDS011;75707;46.948;7.410;2024-02-23T04:25:22;1.799999952;;;0.300000012;;
85301;SDS011;75707;46.948;7.410;2024-02-23T04:26:25;1.200000048;;;0.400000006;;
85301;SDS011;75707;46.948;7.410;2024-02-23T04:27:27;0.5;;;0.5;;
85301;SDS011;75707;46.948;7.410;2024-02-23T04:29:00;0.200000003;;;0.200000003;;
85301;SDS011;75707;46.948;7.410;2024-02-23T04:30:03;1.100000024;;;0.300000012;;
85301;SDS011;75707;46.948;7.410;2024-02-23T04:31:05;0.899999976;;;0.300000012;;
85301;SDS011;75707;46.948;7.410;2024-02-23T04:32:07;0.899999976;;;0.400000006;;
85301;SDS011;75707;46.948;7.410;2024-02-23T04:33:09;0.800000012;;;0.300000012;;
85301;SDS011;75707;46.948;7.410;2024-02-23T04:34:11;0.5;;;0.400000006;;
85301;SDS011;75707;46.948;7.410;2024-02-23T04:35:13;0.5;;;0.200000003;;
85301;SDS011;75707;46.948;7.410;2024-02-23T04:36:18;0.300000012;;;0.200000003;;
85301;SDS011;75707;46.948;7.410;2024-02-23T04:37:17;0.899999976;;;0.300000012;;
85301;SDS011;75707;46.948;7.410;2024-02-23T04:38:19;0.300000012;;;0.300000012;;
85301;SDS011;75707;46.948;7.410;2024-02-23T04:39:21;0.699999988;;;0.300000012;;
85301;SDS011;75707;46.948;7.410;2024-02-23T04:40:23;1.100000024;;;0.300000012;;
85301;SDS011;75707;46.948;7.410;2024-02-23T04:41:25;2.400000095;;;0.899999976;;
85301;SDS011;75707;46.948;7.410;2024-02-23T04:42:27;0.600000024;;;0.300000012;;
85301;SDS011;75707;46.948;7.410;2024-02-23T04:44:01;1.600000024;;;0.200000003;;
85301;SDS011;75707;46.948;7.410;2024-02-23T04:45:03;0.600000024;;;0.600000024;;
85301;SDS011;75707;46.948;7.410;2024-02-23T04:46:05;0.5;;;0.300000012;;
85301;SDS011;75707;46.948;7.410;2024-02-23T04:47:07;1.700000048;;;0.300000012;;
85301;SDS011;75707;46.948;7.410;2024-02-23T04:48:09;1.100000024;;;0.5;;
85301;SDS011;75707;46.948;7.410;2024-02-23T04:49:10;0.899999976;;;0.300000012;;
85301;SDS011;75707;46.948;7.410;2024-02-23T04:50:12;1.799999952;;;0.400000006;;
85301;SDS011;75707;46.948;7.410;2024-02-23T04:51:14;2.200000048;;;0.400000006;;
85301;SDS011;75707;46.948;7.410;2024-02-23T04:52:16;0.600000024;;;0.200000003;;
85301;SDS011;75707;46.948;7.410;2024-02-23T04:53:18;0.400000006;;;0.400000006;;
85301;SDS011;75707;46.948;7.410;2024-02-23T04:54:20;0.600000024;;;0.300000012;;
85301;SDS011;75707;46.948;7.410;2024-02-23T04:55:22;1.299999952;;;0.400000006;;
85301;SDS011;75707;46.948;7.410;2024-02-23T04:56:23;2;;;0.300000012;;
85301;SDS011;75707;46.948;7.410;2024-02-23T04:57:25;0.899999976;;;0.300000012;;
85301;SDS011;75707;46.948;7.410;2024-02-23T04:58:27;2.299999952;;;0.5;;
85301;SDS011;75707;46.948;7.410;2024-02-23T05:00:00;1.399999976;;;0.300000012;;
85301;SDS011;75707;46.948;7.410;2024-02-23T05:01:02;1;;;0.300000012;;
85301;SDS011;75707;46.948;7.410;2024-02-23T05:02:04;1;;;0.400000006;;
85301;SDS011;75707;46.948;7.410;2024-02-23T05:03:06;2.799999952;;;0.600000024;;
85301;SDS011;75707;46.948;7.410;2024-02-23T05:04:08;0.5;;;0.400000006;;
85301;SDS011;75707;46.948;7.410;2024-02-23T05:05:10;1;;;0.400000006;;
85301;SDS011;75707;46.948;7.410;2024-02-23T05:06:12;2.099999905;;;0.5;;
85301;SDS011;75707;46.948;7.410;2024-02-23T05:07:14;0.800000012;;;0.400000006;;
85301;SDS011;75707;46.948;7.410;2024-02-23T05:08:16;0.899999976;;;0.5;;
85301;SDS011;75707;46.948;7.410;2024-02-23T05:09:18;1.899999976;;;0.699999988;;
85301;SDS011;75707;46.948;7.410;2024-02-23T05:10:20;0.5;;;0.5;;
85301;SDS011;75707;46.948;7.410;2024-02-23T05:11:22;0.800000012;;;0.699999988;;
85301;SDS011;75707;46.948;7.410;2024-02-23T05:12:25;2.099999905;;;0.600000024;;
85301;SDS011;75707;46.948;7.410;2024-02-23T05:13:28;1.200000048;;;0.5;;
85301;SDS011;75707;46.948;7.410;2024-02-23T05:15:00;1.799999952;;;0.5;;
85301;SDS011;75707;46.948;7.410;2024-02-23T05:16:03;1.5;;;0.699999988;;
85301;SDS011;75707;46.948;7.410;2024-02-23T05:17:05;2.400000095;;;0.800000012;;
85301;SDS011;75707;46.948;7.410;2024-02-23T05:18:07;2.200000048;;;0.600000024;;
85301;SDS011;75707;46.948;7.410;2024-02-23T05:19:09;0.899999976;;;0.300000012;;
85301;SDS011;75707;46.948;7.410;2024-02-23T05:20:12;1;;;0.400000006;;
85301;SDS011;75707;46.948;7.410;2024-02-23T05:21:14;2.5;;;0.400000006;;
85301;SDS011;75707;46.948;7.410;2024-02-23T05:22:16;1.799999952;;;0.5;;
85301;SDS011;75707;46.948;7.410;2024-02-23T05:23:18;1.200000048;;;0.699999988;;
85301;SDS011;75707;46.948;7.410;2024-02-23T05:24:20;1.600000024;;;0.800000012;;
85301;SDS011;75707;46.948;7.410;2024-02-23T05:25:23;1.600000024;;;0.699999988;;
85301;SDS011;75707;46.948;7.410;2024-02-23T05:26:25;0.699999988;;;0.600000024;;
85301;SDS011;75707;46.948;7.410;2024-02-23T05:27:27;3;;;1.100000024;;
85301;SDS011;75707;46.948;7.410;2024-02-23T05:29:01;3.099999905;;;1.100000024;;
85301;SDS011;75707;46.948;7.410;2024-02-23T05:30:03;2.200000048;;;1.399999976;;
85301;SDS011;75707;46.948;7.410;2024-02-23T05:31:05;2.099999905;;;1.100000024;;
85301;SDS011;75707;46.948;7.410;2024-02-23T05:32:08;1.5;;;0.899999976;;
85301;SDS011;75707;46.948;7.410;2024-02-23T05:33:10;0.5;;;0.5;;
85301;SDS011;75707;46.948;7.410;2024-02-23T05:34:13;0.600000024;;;0.400000006;;
85301;SDS011;75707;46.948;7.410;2024-02-23T05:35:15;0.800000012;;;0.400000006;;
85301;SDS011;75707;46.948;7.410;2024-02-23T05:36:17;1.899999976;;;0.400000006;;
85301;SDS011;75707;46.948;7.410;2024-02-23T05:37:19;1.100000024;;;0.5;;